KGRFKUIL

Guest
Details From KGRF - GRAY AAF
To KUIL - QUILLAYUTE
Flight Number -
Tags generated
Created
Modified
Stats Distance 96 nm / 177 km
Max Altitude 2,800 ft / 853 m
Waypoints 3
Social Downloads 0
Likes 0
Share VATSIM

Download

Looking for another format? Having issues loading an existing format? Contact us
Advertisement - Login to hide

Notes

Basic altitude profile: - Ascent Rate: 2500ft/min - Ascent Speed: 250kts - Cruise Altitude: 35000ft - Cruise Speed: 420kts - Descent Rate: 1500ft/min - Descent Speed: 250kts Options: - Use NATs: yes - Use PACOTS: yes - Use low airways: yes - Use high airways: yes

Route

KGRF AFGAP KUIL

ID Type Via Altitude Latitude Longitude Leg Dist Tot Dist Heading (true) Name
O KGRF APT - 0 ft / 0 m 47.07922˚ -122.58078˚ - 0 nm - GRAY AAF
AFGAP FIX - 2,800 ft / 853 m 47.16279˚ -122.73333˚ 8 nm 8 nm 309° / 309° -
O KUIL APT - 0 ft / 0 m 47.93913˚ -124.56118˚ 87 nm 95 nm 303° / 302° QUILLAYUTE

Altitude Profile

Advertisement - Login to hide

KGRF

Details ICAO KGRF (GRF)
Name GRAY AAF
Region United States
Timezone America/Los_Angeles (UTC-8.0)
Stats Elevation 302 ft / 92 m (AMSL)
Location 47.079218° -122.580783°
Runways 1
Magnetic Variation 15.644° E

METAR

KGRF 150958Z COR 00000KT 10SM CLR 00/00 A3020 RMK AO2 SLP233 $ COR 1013

Decode

TAF

TAF AMD KGRF 150343Z 1503/1603 VRB06KT 0800 FG FEW002 SCT200 QNH3018INS TEMPO 1503/1509 2400 BR BECMG 1510/1511 18006KT 1600 BR BKN030 620608 QNH3017INS BECMG 1513/1514 18009KT 3200 -RA BR BKN007 620505 QNH3018INS BECMG 1518/1519 20009KT 9999 NSW BKN015 620309 QNH3019INS TX01/1503Z TNM03/1513Z

Decode

Departure Runways

ID Width Length Bearing (true) Bearing (mag) Surface Threshold Offset Overrun Length
15 150 ft / 46 m 6,126 ft / 1,867 m 167.11° 151.47° Asphalt 0 ft / 0 m 0 ft / 0 m
33 150 ft / 46 m 6,126 ft / 1,867 m 347.11° 331.47° Asphalt 0 ft / 0 m 0 ft / 0 m

KUIL

Details ICAO KUIL
Name QUILLAYUTE
Region United States
Timezone America/Los_Angeles (UTC-8.0)
Stats Elevation 194 ft / 59 m (AMSL)
Location 47.939128° -124.561178°
Runways 2
Magnetic Variation 16.167° E

METAR

KUIL 150953Z AUTO 00000KT 10SM OVC044 04/03 A3019 RMK AO2 SLP224 T00390033

Decode

TAF

Not found

Destination Runways

ID Width Length Bearing (true) Bearing (mag) Surface Threshold Offset Overrun Length
04 98 ft / 30 m 4,203 ft / 1,281 m 58.29° 42.12° Concrete 0 ft / 0 m 0 ft / 0 m
14 174 ft / 53 m 4,676 ft / 1,425 m 143.00° 126.83° Concrete 0 ft / 0 m 0 ft / 0 m
22 98 ft / 30 m 4,203 ft / 1,281 m 238.31° 222.14° Concrete 0 ft / 0 m 801 ft / 244 m
32 174 ft / 53 m 4,676 ft / 1,425 m 323.00° 306.83° Concrete 0 ft / 0 m 0 ft / 0 m